Time;durP1;ratioP1;P1;durP2;ratioP2;P2;SDS_P1;SDS_P2;PMS_P1;PMS_P2;Temp;Humidity;BMP_temperature;BMP_pressure;BME280_temperature;BME280_humidity;BME280_pressure;Samples;Min_cycle;Max_cycle;Signal;HPM_P1;HPM_P2
2023/07/11 00:00:37;;;;;;;6.93;6.20;;;;;;;;;;5016798;28;20036;-80
2023/07/11 00:03:03;;;;;;;10.52;6.55;;;;;;;;;;5016535;28;20033;-79
2023/07/11 00:05:28;;;;;;;8.88;6.30;;;;;;;;;;5018146;28;20025;-79
2023/07/11 00:07:54;;;;;;;12.43;6.68;;;;;;;;;;5016641;28;20022;-80
2023/07/11 00:10:19;;;;;;;7.93;6.10;;;;;;;;;;5017946;28;20076;-80
2023/07/11 00:12:45;;;;;;;16.23;6.50;;;;;;;;;;5017881;28;20064;-79
2023/07/11 00:15:11;;;;;;;8.70;6.20;;;;;;;;;;5000004;28;20125;-79
2023/07/11 00:17:37;;;;;;;8.55;6.53;;;;;;;;;;5016151;28;20037;-79
2023/07/11 00:20:04;;;;;;;13.13;6.60;;;;;;;;;;5000206;28;20034;-80
2023/07/11 00:22:31;;;;;;;7.70;6.45;;;;;;;;;;5016548;28;20108;-78
2023/07/11 00:24:56;;;;;;;10.93;6.50;;;;;;;;;;5017735;28;20128;-80
2023/07/11 00:27:23;;;;;;;8.85;6.28;;;;;;;;;;5016328;28;20120;-79
2023/07/11 00:29:49;;;;;;;9.60;6.82;;;;;;;;;;5016455;28;20025;-79
2023/07/11 00:32:15;;;;;;;10.15;6.80;;;;;;;;;;4999834;28;20041;-80
2023/07/11 00:34:40;;;;;;;9.45;6.63;;;;;;;;;;5016182;28;20139;-79
2023/07/11 00:37:07;;;;;;;9.68;6.57;;;;;;;;;;5017221;28;20029;-79
2023/07/11 00:39:33;;;;;;;10.55;6.30;;;;;;;;;;4999618;28;20103;-79
2023/07/11 00:41:59;;;;;;;10.95;6.80;;;;;;;;;;5016010;28;20030;-79
2023/07/11 00:44:24;;;;;;;10.88;7.40;;;;;;;;;;4999285;28;20064;-80
2023/07/11 00:46:51;;;;;;;12.75;7.05;;;;;;;;;;5017213;28;20030;-79
2023/07/11 00:49:18;;;;;;;8.45;6.80;;;;;;;;;;5016255;28;20242;-79
2023/07/11 00:51:49;;;;;;;8.40;6.60;;;;;;;;;;4999628;28;20033;-80
2023/07/11 00:54:16;;;;;;;9.90;6.85;;;;;;;;;;4999901;28;20049;-81
2023/07/11 00:56:44;;;;;;;10.50;6.88;;;;;;;;;;4999565;28;20022;-80
2023/07/11 00:59:09;;;;;;;7.07;6.40;;;;;;;;;;4999434;28;20541;-79
2023/07/11 01:01:35;;;;;;;10.98;6.90;;;;;;;;;;4999587;28;20080;-79
2023/07/11 01:04:01;;;;;;;8.02;6.78;;;;;;;;;;5015824;28;20050;-80
2023/07/11 01:06:28;;;;;;;7.90;6.80;;;;;;;;;;5000024;28;20046;-80
2023/07/11 01:08:54;;;;;;;9.68;7.28;;;;;;;;;;5015598;28;20033;-80
2023/07/11 01:11:20;;;;;;;11.48;6.50;;;;;;;;;;5015771;28;20056;-79
2023/07/11 01:13:45;;;;;;;10.27;6.95;;;;;;;;;;5015140;28;20034;-79
2023/07/11 01:16:11;;;;;;;9.95;7.38;;;;;;;;;;4983466;28;20033;-80
2023/07/11 01:18:36;;;;;;;10.57;7.50;;;;;;;;;;5015366;28;20034;-79
2023/07/11 01:21:04;;;;;;;11.50;7.40;;;;;;;;;;5018993;28;20034;-80
2023/07/11 01:23:29;;;;;;;9.23;7.60;;;;;;;;;;5016904;28;20030;-79
2023/07/11 01:26:04;;;;;;;16.98;8.40;;;;;;;;;;4999225;28;20092;-80
2023/07/11 01:28:29;;;;;;;11.05;7.82;;;;;;;;;;4988213;28;20045;-80
2023/07/11 01:30:55;;;;;;;12.98;8.27;;;;;;;;;;5020953;28;20034;-80
2023/07/11 01:33:24;;;;;;;10.05;8.10;;;;;;;;;;5010417;28;20033;-79
2023/07/11 01:35:53;;;;;;;12.25;7.93;;;;;;;;;;5027294;28;20069;-79
2023/07/11 01:38:19;;;;;;;10.13;7.75;;;;;;;;;;4987310;28;20034;-80
2023/07/11 01:40:46;;;;;;;13.20;7.30;;;;;;;;;;5002708;28;20022;-80
2023/07/11 01:43:12;;;;;;;12.70;7.25;;;;;;;;;;5016595;28;20021;-80
2023/07/11 01:45:37;;;;;;;14.85;7.70;;;;;;;;;;5018686;28;20392;-80
2023/07/11 01:48:03;;;;;;;10.73;7.72;;;;;;;;;;5034927;28;20377;-80
2023/07/11 01:50:28;;;;;;;11.75;7.30;;;;;;;;;;5035594;28;20030;-80
2023/07/11 01:52:54;;;;;;;11.70;7.10;;;;;;;;;;5035711;28;20428;-80
2023/07/11 01:55:19;;;;;;;7.88;7.07;;;;;;;;;;5035552;28;20037;-80
2023/07/11 01:57:44;;;;;;;7.88;7.07;;;;;;;;;;5017792;28;20040;-79
2023/07/11 02:00:11;;;;;;;12.23;7.03;;;;;;;;;;5017564;28;20026;-79
2023/07/11 02:02:36;;;;;;;10.27;7.15;;;;;;;;;;5001426;28;20029;-79
2023/07/11 02:05:01;;;;;;;8.52;7.05;;;;;;;;;;5001482;28;20399;-79
2023/07/11 02:07:28;;;;;;;8.85;7.13;;;;;;;;;;5035318;28;20445;-79
2023/07/11 02:09:53;;;;;;;7.55;6.82;;;;;;;;;;5001529;28;20041;-79
2023/07/11 02:12:19;;;;;;;9.30;6.63;;;;;;;;;;5017660;28;20025;-80
2023/07/11 02:14:46;;;;;;;10.35;7.38;;;;;;;;;;5035571;28;20033;-80
2023/07/11 02:17:14;;;;;;;7.93;6.85;;;;;;;;;;5017980;28;20033;-78
2023/07/11 02:19:40;;;;;;;7.65;6.85;;;;;;;;;;5001605;28;20025;-78
2023/07/11 02:22:05;;;;;;;7.68;6.78;;;;;;;;;;5017649;28;20128;-79
2023/07/11 02:24:31;;;;;;;19.73;6.70;;;;;;;;;;5001218;28;20037;-79
2023/07/11 02:26:56;;;;;;;9.10;7.40;;;;;;;;;;5000772;28;20060;-80
2023/07/11 02:29:22;;;;;;;9.48;7.28;;;;;;;;;;5017523;28;20531;-80
2023/07/11 02:31:47;;;;;;;12.55;7.10;;;;;;;;;;5017408;28;20075;-78
2023/07/11 02:34:13;;;;;;;12.45;7.20;;;;;;;;;;5034597;28;20025;-79
2023/07/11 02:36:38;;;;;;;14.88;7.32;;;;;;;;;;5034945;28;20021;-78
2023/07/11 02:39:04;;;;;;;10.25;7.20;;;;;;;;;;5034657;28;20029;-78
2023/07/11 02:41:29;;;;;;;9.40;7.28;;;;;;;;;;5016756;28;20030;-78
2023/07/11 02:43:55;;;;;;;8.63;7.32;;;;;;;;;;5000669;28;20132;-79
2023/07/11 02:46:21;;;;;;;7.00;6.25;;;;;;;;;;5017218;28;20029;-79
2023/07/11 02:48:46;;;;;;;10.63;7.03;;;;;;;;;;5034880;28;20426;-80
2023/07/11 02:51:12;;;;;;;16.50;7.22;;;;;;;;;;5016875;28;20412;-80
2023/07/11 02:53:37;;;;;;;10.95;6.95;;;;;;;;;;5016869;28;20029;-80
2023/07/11 02:56:02;;;;;;;8.55;7.28;;;;;;;;;;5000123;28;20522;-80
2023/07/11 02:58:28;;;;;;;9.98;7.43;;;;;;;;;;5017028;28;20029;-79
2023/07/11 03:00:55;;;;;;;10.32;7.25;;;;;;;;;;5016811;28;20123;-80
2023/07/11 03:03:20;;;;;;;14.30;6.97;;;;;;;;;;5034490;28;20025;-80
2023/07/11 03:05:46;;;;;;;11.48;7.28;;;;;;;;;;5017336;28;20032;-81
2023/07/11 03:08:12;;;;;;;7.68;6.78;;;;;;;;;;5034352;28;20063;-80
2023/07/11 03:10:37;;;;;;;10.45;7.05;;;;;;;;;;4999546;28;20056;-80
2023/07/11 03:13:03;;;;;;;8.25;7.13;;;;;;;;;;5034003;28;20448;-80
2023/07/11 03:15:28;;;;;;;8.35;6.40;;;;;;;;;;5000113;28;20033;-81
2023/07/11 03:17:53;;;;;;;7.75;6.95;;;;;;;;;;5034766;28;20124;-80
2023/07/11 03:20:19;;;;;;;12.70;7.40;;;;;;;;;;5038133;28;20030;-80
2023/07/11 03:22:44;;;;;;;8.90;6.78;;;;;;;;;;5039902;28;20116;-79
2023/07/11 03:25:10;;;;;;;10.15;6.90;;;;;;;;;;5043619;28;20036;-80
2023/07/11 03:27:35;;;;;;;8.70;7.20;;;;;;;;;;5019497;28;20044;-81
2023/07/11 03:30:01;;;;;;;8.45;6.70;;;;;;;;;;5040851;28;20041;-81
2023/07/11 03:32:26;;;;;;;8.60;7.18;;;;;;;;;;5040496;28;20080;-82
2023/07/11 03:34:52;;;;;;;10.35;7.20;;;;;;;;;;5040136;28;20032;-82
2023/07/11 03:37:17;;;;;;;8.40;6.50;;;;;;;;;;5038912;28;20056;-80
2023/07/11 03:39:42;;;;;;;9.88;6.70;;;;;;;;;;5036009;28;20025;-80
2023/07/11 03:42:08;;;;;;;9.63;6.97;;;;;;;;;;5034575;28;20080;-80
2023/07/11 03:44:34;;;;;;;12.50;6.82;;;;;;;;;;5033649;28;20049;-79
2023/07/11 03:46:59;;;;;;;9.88;6.95;;;;;;;;;;5034419;28;20022;-79
2023/07/11 03:49:24;;;;;;;14.13;6.80;;;;;;;;;;5033743;28;20021;-80
2023/07/11 03:51:50;;;;;;;10.13;7.20;;;;;;;;;;5034098;28;20029;-81
2023/07/11 03:54:15;;;;;;;11.20;7.13;;;;;;;;;;5015722;28;20033;-80
2023/07/11 03:56:41;;;;;;;16.58;6.80;;;;;;;;;;4999752;28;20025;-80
2023/07/11 03:59:06;;;;;;;12.65;7.28;;;;;;;;;;5000027;28;20034;-80
2023/07/11 04:01:32;;;;;;;11.18;6.65;;;;;;;;;;5000425;28;20064;-79
2023/07/11 04:03:57;;;;;;;10.52;6.97;;;;;;;;;;5033922;28;20455;-79
2023/07/11 04:06:22;;;;;;;12.57;6.72;;;;;;;;;;5033761;28;20457;-79
2023/07/11 04:08:48;;;;;;;12.68;6.82;;;;;;;;;;5033410;28;20037;-79
2023/07/11 04:11:13;;;;;;;8.05;6.63;;;;;;;;;;4999881;28;20465;-80
2023/07/11 04:13:39;;;;;;;11.77;6.82;;;;;;;;;;4999899;28;20028;-80
2023/07/11 04:16:04;;;;;;;18.08;6.93;;;;;;;;;;5015879;28;20036;-79
2023/07/11 04:18:30;;;;;;;17.27;6.60;;;;;;;;;;5016110;28;20033;-79
2023/07/11 04:20:55;;;;;;;11.40;6.63;;;;;;;;;;4999634;28;20361;-80
2023/07/11 04:23:21;;;;;;;9.40;6.28;;;;;;;;;;5001570;28;20374;-80
2023/07/11 04:25:47;;;;;;;9.00;6.38;;;;;;;;;;5019592;28;20029;-80
2023/07/11 04:28:13;;;;;;;7.47;6.22;;;;;;;;;;5019467;28;20071;-80
2023/07/11 04:30:39;;;;;;;9.82;6.32;;;;;;;;;;5037349;28;20415;-80
2023/07/11 04:33:04;;;;;;;9.73;6.50;;;;;;;;;;5037020;28;20087;-79
2023/07/11 04:35:30;;;;;;;7.93;6.07;;;;;;;;;;5036896;28;20492;-79
2023/07/11 04:37:55;;;;;;;7.47;6.35;;;;;;;;;;5002802;28;20104;-79
2023/07/11 04:40:21;;;;;;;6.72;5.90;;;;;;;;;;5019292;28;20441;-80
2023/07/11 04:42:46;;;;;;;7.38;6.18;;;;;;;;;;5003115;28;20364;-80
2023/07/11 04:45:12;;;;;;;10.90;6.35;;;;;;;;;;5036660;28;20045;-79
2023/07/11 04:47:38;;;;;;;9.25;6.47;;;;;;;;;;5003764;28;20063;-80
2023/07/11 04:50:04;;;;;;;9.90;6.20;;;;;;;;;;5019273;28;20029;-81
2023/07/11 04:52:30;;;;;;;10.60;6.07;;;;;;;;;;5036710;28;20029;-79
2023/07/11 04:54:55;;;;;;;7.22;6.05;;;;;;;;;;5019128;28;20030;-80
2023/07/11 04:57:21;;;;;;;9.88;6.25;;;;;;;;;;5019278;28;20032;-81
2023/07/11 04:59:47;;;;;;;11.32;6.20;;;;;;;;;;5018977;28;20022;-79
2023/07/11 05:02:12;;;;;;;12.00;6.28;;;;;;;;;;5002630;28;20061;-81
2023/07/11 05:04:41;;;;;;;9.40;5.75;;;;;;;;;;5036555;28;20026;-80
2023/07/11 05:07:07;;;;;;;11.98;5.90;;;;;;;;;;5002936;28;20025;-81
2023/07/11 05:09:32;;;;;;;6.13;5.35;;;;;;;;;;5018673;28;20029;-81
2023/07/11 05:11:59;;;;;;;7.10;5.57;;;;;;;;;;5018879;28;20039;-80
2023/07/11 05:14:24;;;;;;;6.13;4.95;;;;;;;;;;5002839;28;20445;-81
2023/07/11 05:16:51;;;;;;;6.10;5.10;;;;;;;;;;5036231;28;20069;-80
2023/07/11 05:19:17;;;;;;;11.20;5.57;;;;;;;;;;5018713;28;20025;-81
2023/07/11 05:21:42;;;;;;;10.00;5.50;;;;;;;;;;5018586;28;20026;-80
2023/07/11 05:24:09;;;;;;;13.00;4.97;;;;;;;;;;5018915;28;20504;-81
2023/07/11 05:26:36;;;;;;;7.60;5.28;;;;;;;;;;5018517;28;20128;-81
2023/07/11 05:29:03;;;;;;;8.00;5.45;;;;;;;;;;5018278;28;20346;-81
2023/07/11 05:31:29;;;;;;;9.82;5.25;;;;;;;;;;5018205;28;20118;-81
2023/07/11 05:33:55;;;;;;;13.57;5.57;;;;;;;;;;5017229;28;20048;-81
2023/07/11 05:36:33;;;;;;;10.18;5.53;;;;;;;;;;5035437;28;20380;-80
2023/07/11 05:39:03;;;;;;;9.67;5.27;;;;;;;;;;5003382;28;20026;-89
2023/07/11 05:41:29;;;;;;;7.28;5.60;;;;;;;;;;5037123;28;20021;-89
2023/07/11 05:43:55;;;;;;;6.85;5.00;;;;;;;;;;5019038;28;20049;-88
2023/07/11 05:46:21;;;;;;;11.77;5.20;;;;;;;;;;5018831;28;20107;-89
2023/07/11 05:48:47;;;;;;;7.38;5.22;;;;;;;;;;5035863;28;20112;-86
2023/07/11 05:51:14;;;;;;;8.75;5.22;;;;;;;;;;5035834;28;20021;-89
2023/07/11 05:53:59;;;;;;;10.30;5.32;;;;;;;;;;5003052;28;20030;-89
2023/07/11 05:56:24;;;;;;;11.23;6.03;;;;;;;;;;5018342;28;20029;-87
2023/07/11 05:58:50;;;;;;;8.95;4.97;;;;;;;;;;5002652;28;20364;-89
2023/07/11 06:01:21;;;;;;;11.32;5.95;;;;;;;;;;5019048;28;20072;-85
2023/07/11 06:03:48;;;;;;;12.25;5.63;;;;;;;;;;5018576;28;20386;-87
2023/07/11 06:06:14;;;;;;;11.13;5.00;;;;;;;;;;5036321;28;20088;-84
2023/07/11 06:08:39;;;;;;;10.43;5.65;;;;;;;;;;5037302;28;20029;-85
2023/07/11 06:11:05;;;;;;;11.60;5.25;;;;;;;;;;5018439;28;20400;-84
2023/07/11 06:13:32;;;;;;;9.68;5.70;;;;;;;;;;5035826;28;20053;-87
2023/07/11 06:15:59;;;;;;;10.55;5.28;;;;;;;;;;5035932;28;20040;-89
2023/07/11 06:18:24;;;;;;;6.00;4.70;;;;;;;;;;5037282;28;20021;-86
2023/07/11 06:20:49;;;;;;;9.55;5.13;;;;;;;;;;5019003;28;20040;-87
2023/07/11 06:23:15;;;;;;;9.90;4.80;;;;;;;;;;5036901;28;20517;-88
2023/07/11 06:25:40;;;;;;;6.28;5.13;;;;;;;;;;5001868;28;20044;-89
2023/07/11 06:28:06;;;;;;;12.10;4.80;;;;;;;;;;5036032;28;20472;-87
2023/07/11 06:30:31;;;;;;;6.55;4.63;;;;;;;;;;5041656;28;20025;-90
2023/07/11 06:32:58;;;;;;;12.65;4.72;;;;;;;;;;5041048;28;20025;-87
2023/07/11 06:35:23;;;;;;;7.95;4.57;;;;;;;;;;5022075;28;21119;-91
2023/07/11 06:37:49;;;;;;;8.77;4.75;;;;;;;;;;5042209;28;20033;-90
2023/07/11 06:40:14;;;;;;;6.57;4.10;;;;;;;;;;5023038;28;20033;-92
2023/07/11 06:42:40;;;;;;;7.55;4.40;;;;;;;;;;5021015;28;20028;-87
2023/07/11 06:45:06;;;;;;;6.22;4.50;;;;;;;;;;5003985;28;20099;-90
2023/07/11 06:47:33;;;;;;;7.32;4.45;;;;;;;;;;5037718;28;20472;-89
2023/07/11 06:49:59;;;;;;;5.57;4.70;;;;;;;;;;5038588;28;20052;-90
2023/07/11 06:52:24;;;;;;;4.43;4.07;;;;;;;;;;5020474;28;20448;-89
2023/07/11 06:54:50;;;;;;;9.20;4.47;;;;;;;;;;5019241;28;20456;-90
2023/07/11 06:57:17;;;;;;;7.05;4.50;;;;;;;;;;4987014;28;20036;-92
2023/07/11 06:59:42;;;;;;;8.00;4.70;;;;;;;;;;5005714;28;20022;-91
2023/07/11 07:02:11;;;;;;;7.43;4.75;;;;;;;;;;5039915;28;20035;-91
2023/07/11 07:04:36;;;;;;;7.97;4.63;;;;;;;;;;5019225;28;20083;-89
2023/07/11 07:07:02;;;;;;;10.18;4.60;;;;;;;;;;5020851;28;20026;-86
2023/07/11 07:09:27;;;;;;;11.25;4.60;;;;;;;;;;5018289;28;20022;-89
2023/07/11 07:11:53;;;;;;;5.70;4.72;;;;;;;;;;5036248;28;20092;-90
2023/07/11 07:14:18;;;;;;;10.05;4.70;;;;;;;;;;5022037;28;20057;-89
2023/07/11 07:16:43;;;;;;;6.32;4.53;;;;;;;;;;5006619;28;20116;-91
2023/07/11 07:19:09;;;;;;;8.30;4.20;;;;;;;;;;5022120;28;20040;-91
2023/07/11 07:21:34;;;;;;;8.73;4.28;;;;;;;;;;5005897;28;20040;-90
2023/07/11 07:24:00;;;;;;;7.65;5.00;;;;;;;;;;5007688;28;20381;-90
2023/07/11 07:26:25;;;;;;;7.07;4.85;;;;;;;;;;5023360;28;20033;-90
2023/07/11 07:28:51;;;;;;;6.57;4.53;;;;;;;;;;5006896;28;20034;-90
2023/07/11 07:31:16;;;;;;;10.90;4.65;;;;;;;;;;5027275;28;20523;-89
2023/07/11 07:33:42;;;;;;;6.82;4.57;;;;;;;;;;5008845;28;20084;-90
2023/07/11 07:36:08;;;;;;;5.95;4.75;;;;;;;;;;5004621;28;20038;-90
2023/07/11 07:38:34;;;;;;;13.70;4.50;;;;;;;;;;5023515;28;20036;-89
2023/07/11 07:41:01;;;;;;;10.50;4.88;;;;;;;;;;5006720;28;20025;-89
2023/07/11 07:43:28;;;;;;;12.00;4.87;;;;;;;;;;5004352;28;20537;-91
2023/07/11 07:45:54;;;;;;;8.13;4.35;;;;;;;;;;5006521;28;20060;-89
2023/07/11 07:48:20;;;;;;;7.55;4.43;;;;;;;;;;5005687;28;20433;-89
2023/07/11 07:50:46;;;;;;;5.72;4.15;;;;;;;;;;5005171;28;20047;-90
2023/07/11 07:53:12;;;;;;;6.80;4.90;;;;;;;;;;5022461;28;20093;-88
2023/07/11 07:55:38;;;;;;;15.77;5.20;;;;;;;;;;5006485;28;20075;-90
2023/07/11 07:58:04;;;;;;;16.65;5.57;;;;;;;;;;5007134;28;20512;-88
2023/07/11 08:00:29;;;;;;;13.55;5.40;;;;;;;;;;5023699;28;20068;-89
2023/07/11 08:02:54;;;;;;;20.80;6.43;;;;;;;;;;5010750;28;20068;-88
2023/07/11 08:05:20;;;;;;;7.28;4.93;;;;;;;;;;5027169;28;20049;-89
2023/07/11 08:07:47;;;;;;;7.57;4.57;;;;;;;;;;5027784;28;20021;-86
2023/07/11 08:10:13;;;;;;;8.75;4.50;;;;;;;;;;5043247;28;20032;-88
2023/07/11 08:12:39;;;;;;;7.82;4.75;;;;;;;;;;5042243;28;20025;-87
2023/07/11 08:15:05;;;;;;;10.50;5.10;;;;;;;;;;5012271;28;20037;-89
2023/07/11 08:17:31;;;;;;;6.13;4.18;;;;;;;;;;5045333;28;20028;-91
2023/07/11 08:19:56;;;;;;;5.90;4.90;;;;;;;;;;5025475;28;20046;-91
2023/07/11 08:22:22;;;;;;;7.47;4.68;;;;;;;;;;5006679;28;20338;-88
2023/07/11 08:24:47;;;;;;;5.93;4.57;;;;;;;;;;5039435;28;20112;-85
2023/07/11 08:27:13;;;;;;;8.48;4.78;;;;;;;;;;5004131;28;20025;-86
2023/07/11 08:29:43;;;;;;;6.55;4.55;;;;;;;;;;5039538;28;20404;-88
2023/07/11 08:32:08;;;;;;;7.35;4.85;;;;;;;;;;5022520;28;20030;-85
2023/07/11 08:34:34;;;;;;;7.45;4.50;;;;;;;;;;5005391;28;20083;-88
2023/07/11 08:36:59;;;;;;;8.20;5.10;;;;;;;;;;5039242;28;20060;-88
2023/07/11 08:39:25;;;;;;;7.82;4.93;;;;;;;;;;5021095;28;20022;-85
2023/07/11 08:41:51;;;;;;;8.05;4.75;;;;;;;;;;5039062;28;20072;-87
2023/07/11 08:44:31;;;;;;;9.25;4.60;;;;;;;;;;5037945;28;20050;-88
2023/07/11 08:46:59;;;;;;;8.68;4.97;;;;;;;;;;5021406;28;20028;-86
2023/07/11 08:49:32;;;;;;;9.95;4.40;;;;;;;;;;5004967;28;20025;-85
2023/07/11 08:51:57;;;;;;;6.38;4.60;;;;;;;;;;5006468;28;20342;-87
2023/07/11 08:54:29;;;;;;;5.38;4.60;;;;;;;;;;5003789;28;20099;-80
2023/07/11 08:56:59;;;;;;;5.78;4.90;;;;;;;;;;5020053;28;20033;-79
2023/07/11 08:59:58;;;;;;;5.10;4.65;;;;;;;;;;5037115;28;20416;-79
2023/07/11 09:02:48;;;;;;;5.88;4.60;;;;;;;;;;5011701;28;20041;-78
2023/07/11 09:05:20;;;;;;;8.75;4.68;;;;;;;;;;5018919;28;20026;-80
2023/07/11 09:07:45;;;;;;;6.57;5.10;;;;;;;;;;5018955;28;20036;-81
2023/07/11 09:10:38;;;;;;;7.20;4.80;;;;;;;;;;5018181;28;20037;-80
2023/07/11 09:13:04;;;;;;;6.43;5.10;;;;;;;;;;5020836;28;20022;-81
2023/07/11 09:15:43;;;;;;;11.30;4.93;;;;;;;;;;5018623;28;20099;-80
2023/07/11 09:18:18;;;;;;;6.32;5.30;;;;;;;;;;5003189;28;20491;-80
2023/07/11 09:20:53;;;;;;;6.53;4.68;;;;;;;;;;5003042;28;20017;-81
2023/07/11 09:23:39;;;;;;;8.38;4.70;;;;;;;;;;5018920;28;20036;-81
2023/07/11 09:26:09;;;;;;;11.38;5.03;;;;;;;;;;5005178;28;20115;-79
2023/07/11 09:28:35;;;;;;;19.20;5.03;;;;;;;;;;5019422;28;20129;-82
2023/07/11 09:31:02;;;;;;;6.38;4.47;;;;;;;;;;5002534;28;20057;-80
2023/07/11 09:33:31;;;;;;;9.48;4.97;;;;;;;;;;5002412;28;20594;-81
2023/07/11 09:35:57;;;;;;;7.15;4.90;;;;;;;;;;5018370;28;20051;-80
2023/07/11 09:38:34;;;;;;;8.13;4.93;;;;;;;;;;5018163;28;20124;-80
2023/07/11 09:41:10;;;;;;;8.88;4.85;;;;;;;;;;5001786;28;20029;-80
2023/07/11 09:43:36;;;;;;;14.77;5.45;;;;;;;;;;5002427;28;20071;-81
2023/07/11 09:46:01;;;;;;;7.90;4.90;;;;;;;;;;5035810;28;20493;-81
2023/07/11 09:48:32;;;;;;;8.88;5.00;;;;;;;;;;5035938;28;20429;-79
2023/07/11 09:51:00;;;;;;;8.88;5.30;;;;;;;;;;5001844;28;20069;-80
2023/07/11 09:53:28;;;;;;;8.63;4.80;;;;;;;;;;5036366;28;20069;-79
2023/07/11 09:55:54;;;;;;;6.93;5.25;;;;;;;;;;5021422;28;20056;-79
2023/07/11 09:58:20;;;;;;;8.10;4.93;;;;;;;;;;5055859;28;20035;-80
2023/07/11 10:00:58;;;;;;;6.72;5.00;;;;;;;;;;5037453;28;20029;-79
2023/07/11 10:03:25;;;;;;;9.38;5.10;;;;;;;;;;5038045;28;20365;-79
2023/07/11 10:05:52;;;;;;;6.13;4.97;;;;;;;;;;5037534;28;20098;-81
2023/07/11 10:08:26;;;;;;;7.18;5.00;;;;;;;;;;5053962;28;20372;-81
2023/07/11 10:11:01;;;;;;;12.38;5.20;;;;;;;;;;5035579;28;20040;-79
2023/07/11 10:13:27;;;;;;;5.55;5.05;;;;;;;;;;5020205;28;20376;-81
2023/07/11 10:15:54;;;;;;;9.85;5.60;;;;;;;;;;5036236;28;20033;-81
2023/07/11 10:18:28;;;;;;;8.98;5.30;;;;;;;;;;5035863;28;20040;-81
2023/07/11 10:20:57;;;;;;;11.00;5.18;;;;;;;;;;5035522;28;20025;-82
2023/07/11 10:23:24;;;;;;;7.38;5.25;;;;;;;;;;5021105;28;20055;-82
2023/07/11 10:25:54;;;;;;;5.25;4.75;;;;;;;;;;5004783;28;20082;-82
2023/07/11 10:28:34;;;;;;;11.98;5.07;;;;;;;;;;5004708;28;20441;-81
2023/07/11 10:31:10;;;;;;;5.50;4.97;;;;;;;;;;5021931;28;20032;-79
2023/07/11 10:33:42;;;;;;;9.93;4.95;;;;;;;;;;5037067;28;20067;-80
2023/07/11 10:36:21;;;;;;;5.30;4.80;;;;;;;;;;5020624;28;20499;-81
2023/07/11 10:39:04;;;;;;;5.55;4.90;;;;;;;;;;5020878;28;20033;-79
2023/07/11 10:41:36;;;;;;;10.27;5.47;;;;;;;;;;5054883;28;20025;-81
2023/07/11 10:44:03;;;;;;;8.07;5.45;;;;;;;;;;5004282;28;20091;-81
2023/07/11 10:46:28;;;;;;;8.57;5.28;;;;;;;;;;5036969;28;20080;-81
2023/07/11 10:48:55;;;;;;;9.23;4.97;;;;;;;;;;5054760;28;20464;-77
2023/07/11 10:51:28;;;;;;;9.20;5.18;;;;;;;;;;5020680;28;20028;-79
2023/07/11 10:54:03;;;;;;;7.13;5.40;;;;;;;;;;5004019;28;20024;-80
2023/07/11 10:56:32;;;;;;;9.35;5.20;;;;;;;;;;5021006;28;20033;-80
2023/07/11 10:58:58;;;;;;;15.35;5.70;;;;;;;;;;5020570;28;20086;-80
2023/07/11 11:01:34;;;;;;;11.77;5.53;;;;;;;;;;5036290;28;20112;-81
2023/07/11 11:04:10;;;;;;;9.52;5.68;;;;;;;;;;5037176;28;20341;-80
2023/07/11 11:07:11;;;;;;;6.80;5.13;;;;;;;;;;5036337;28;20028;-80
2023/07/11 11:09:45;;;;;;;7.35;5.18;;;;;;;;;;5025117;28;20037;-81
2023/07/11 11:12:34;;;;;;;8.52;5.30;;;;;;;;;;5057213;28;20028;-80
2023/07/11 11:15:17;;;;;;;8.07;5.38;;;;;;;;;;5054481;28;20075;-81
2023/07/11 11:17:52;;;;;;;9.65;5.40;;;;;;;;;;5059399;28;20128;-80
2023/07/11 11:20:23;;;;;;;12.00;5.47;;;;;;;;;;5040305;28;20036;-80
2023/07/11 11:22:49;;;;;;;8.40;5.25;;;;;;;;;;5023312;28;20020;-80
2023/07/11 11:25:24;;;;;;;8.85;5.22;;;;;;;;;;5056619;28;20025;-79
2023/07/11 11:28:21;;;;;;;6.43;5.28;;;;;;;;;;5021713;28;20056;-79
2023/07/11 11:31:09;;;;;;;6.97;4.87;;;;;;;;;;5057853;28;20040;-80
2023/07/11 11:33:53;;;;;;;12.15;5.45;;;;;;;;;;5037091;28;20282;-78
2023/07/11 11:36:26;;;;;;;7.25;5.00;;;;;;;;;;5054175;28;20040;-81
2023/07/11 11:39:09;;;;;;;6.57;4.90;;;;;;;;;;5036106;28;20029;-80
2023/07/11 11:41:43;;;;;;;7.90;4.95;;;;;;;;;;5021440;28;20033;-80
2023/07/11 11:44:40;;;;;;;7.13;4.88;;;;;;;;;;5035825;28;20068;-80
2023/07/11 11:47:07;;;;;;;8.73;4.85;;;;;;;;;;5037346;28;20033;-79
2023/07/11 11:49:32;;;;;;;8.80;5.30;;;;;;;;;;5019923;28;20066;-79
2023/07/11 11:51:58;;;;;;;10.27;5.18;;;;;;;;;;5036726;28;20025;-80
2023/07/11 11:54:24;;;;;;;8.65;4.88;;;;;;;;;;5020705;28;20653;-80
2023/07/11 11:56:55;;;;;;;12.27;5.20;;;;;;;;;;5036227;28;20452;-81
2023/07/11 11:59:22;;;;;;;10.85;5.10;;;;;;;;;;5036293;28;20029;-79
2023/07/11 12:01:54;;;;;;;8.40;5.20;;;;;;;;;;5003275;28;20349;-79
2023/07/11 12:04:34;;;;;;;7.68;4.80;;;;;;;;;;5035922;28;20440;-81
2023/07/11 12:07:15;;;;;;;7.25;5.22;;;;;;;;;;5053237;28;20387;-79
2023/07/11 12:09:52;;;;;;;8.82;4.95;;;;;;;;;;5037403;28;20029;-80
2023/07/11 12:12:36;;;;;;;9.60;4.97;;;;;;;;;;5036007;28;20032;-79
2023/07/11 12:15:21;;;;;;;8.88;4.88;;;;;;;;;;5052017;28;20425;-81
2023/07/11 12:17:49;;;;;;;8.00;4.85;;;;;;;;;;5035766;28;20032;-80
2023/07/11 12:20:25;;;;;;;11.48;5.00;;;;;;;;;;5034775;28;20112;-80
2023/07/11 12:22:51;;;;;;;12.57;5.47;;;;;;;;;;5002131;28;20045;-80
2023/07/11 12:25:28;;;;;;;7.57;5.18;;;;;;;;;;5034751;28;20112;-79
2023/07/11 12:27:53;;;;;;;6.13;4.55;;;;;;;;;;5052381;28;20070;-80
2023/07/11 12:30:41;;;;;;;9.88;5.28;;;;;;;;;;5052348;28;20032;-80
2023/07/11 12:33:34;;;;;;;8.02;5.10;;;;;;;;;;5052090;28;20025;-80
2023/07/11 12:36:05;;;;;;;9.85;5.20;;;;;;;;;;5034555;28;20068;-81
2023/07/11 12:39:03;;;;;;;13.10;5.00;;;;;;;;;;5052451;28;20036;-80
2023/07/11 12:41:45;;;;;;;7.82;4.47;;;;;;;;;;5008272;28;20188;-80
2023/07/11 12:44:15;;;;;;;6.63;5.00;;;;;;;;;;5020756;28;20045;-80
2023/07/11 12:46:42;;;;;;;6.30;4.78;;;;;;;;;;5006114;28;20032;-79
2023/07/11 12:49:27;;;;;;;6.55;4.70;;;;;;;;;;5005567;28;20383;-82
2023/07/11 12:52:03;;;;;;;10.02;4.93;;;;;;;;;;5038754;28;20029;-86
2023/07/11 12:54:28;;;;;;;10.27;5.00;;;;;;;;;;5022758;28;20052;-83
2023/07/11 12:56:53;;;;;;;8.23;5.30;;;;;;;;;;5056215;28;20376;-82
2023/07/11 12:59:39;;;;;;;7.50;4.68;;;;;;;;;;5039492;28;20109;-82
2023/07/11 13:02:05;;;;;;;8.60;5.50;;;;;;;;;;5026323;28;20477;-83
2023/07/11 13:04:33;;;;;;;9.13;4.95;;;;;;;;;;5009604;28;20039;-84
2023/07/11 13:06:59;;;;;;;10.68;5.40;;;;;;;;;;5056579;28;20033;-82
2023/07/11 13:09:25;;;;;;;10.88;5.03;;;;;;;;;;5022332;28;20032;-80
2023/07/11 13:11:52;;;;;;;17.10;11.60;;;;;;;;;;5039029;28;20033;-81
2023/07/11 13:14:18;;;;;;;15.23;10.85;;;;;;;;;;5038315;28;20036;-82
2023/07/11 13:16:44;;;;;;;28.63;21.30;;;;;;;;;;5056258;28;20079;-79
2023/07/11 13:19:17;;;;;;;19.17;12.90;;;;;;;;;;5021881;28;20029;-82
2023/07/11 13:21:43;;;;;;;14.70;10.88;;;;;;;;;;5022830;28;20090;-80
2023/07/11 13:24:13;;;;;;;20.70;14.75;;;;;;;;;;5022229;28;20025;-80
2023/07/11 13:26:38;;;;;;;21.55;11.85;;;;;;;;;;5022308;28;20067;-82
2023/07/11 13:29:12;;;;;;;13.38;6.03;;;;;;;;;;5038729;28;20044;-81
2023/07/11 13:31:38;;;;;;;15.52;11.25;;;;;;;;;;5056225;28;20033;-81
2023/07/11 13:34:36;;;;;;;16.23;6.13;;;;;;;;;;5038602;28;20039;-83
2023/07/11 13:37:01;;;;;;;8.82;7.10;;;;;;;;;;4995204;28;20346;-82
2023/07/11 13:39:34;;;;;;;10.40;6.55;;;;;;;;;;5005013;28;20039;-81
2023/07/11 13:42:02;;;;;;;10.27;6.78;;;;;;;;;;5022158;28;20059;-83
2023/07/11 13:44:36;;;;;;;10.60;5.57;;;;;;;;;;5037889;28;20405;-81
2023/07/11 13:47:09;;;;;;;10.48;5.15;;;;;;;;;;5055896;28;20096;-84
2023/07/11 13:49:38;;;;;;;9.32;5.07;;;;;;;;;;5025222;28;20029;-81
2023/07/11 13:52:04;;;;;;;7.20;5.07;;;;;;;;;;5041008;28;20360;-82
2023/07/11 13:54:34;;;;;;;12.88;4.88;;;;;;;;;;5040768;28;20033;-83
2023/07/11 13:56:59;;;;;;;9.63;4.80;;;;;;;;;;5038016;28;20025;-82
2023/07/11 13:59:25;;;;;;;12.13;5.18;;;;;;;;;;5047450;28;20092;-81
2023/07/11 14:01:50;;;;;;;8.20;4.90;;;;;;;;;;5056502;28;20043;-82
2023/07/11 14:04:26;;;;;;;6.22;4.90;;;;;;;;;;5040169;28;20025;-81
2023/07/11 14:06:51;;;;;;;7.28;5.28;;;;;;;;;;5044009;28;20048;-81
2023/07/11 14:09:17;;;;;;;9.75;5.05;;;;;;;;;;5029962;28;20033;-82
2023/07/11 14:11:45;;;;;;;8.70;5.20;;;;;;;;;;5056219;28;20029;-82
2023/07/11 14:14:16;;;;;;;8.32;5.20;;;;;;;;;;5038088;28;20025;-83
2023/07/11 14:16:42;;;;;;;5.90;4.97;;;;;;;;;;5036912;28;20387;-81
2023/07/11 14:19:30;;;;;;;13.65;5.38;;;;;;;;;;5037310;28;20032;-83
2023/07/11 14:21:55;;;;;;;9.50;5.13;;;;;;;;;;5054836;28;20372;-82
2023/07/11 14:24:21;;;;;;;10.90;5.30;;;;;;;;;;5054998;28;20035;-82
2023/07/11 14:26:46;;;;;;;10.27;5.38;;;;;;;;;;5054719;28;20021;-82
2023/07/11 14:29:28;;;;;;;8.05;5.07;;;;;;;;;;5037115;28;20136;-81
2023/07/11 14:31:54;;;;;;;10.30;5.28;;;;;;;;;;5038170;28;20043;-82
2023/07/11 14:34:25;;;;;;;8.18;5.38;;;;;;;;;;5054784;28;20083;-81
2023/07/11 14:36:53;;;;;;;9.25;4.75;;;;;;;;;;5037236;28;20028;-81
2023/07/11 14:39:18;;;;;;;6.80;5.05;;;;;;;;;;5036977;28;20039;-82
2023/07/11 14:41:53;;;;;;;11.40;4.80;;;;;;;;;;5036767;28;20108;-83
2023/07/11 14:44:23;;;;;;;7.25;4.93;;;;;;;;;;5036444;28;20048;-82
2023/07/11 14:46:51;;;;;;;9.13;4.68;;;;;;;;;;5054167;28;20028;-82